Ana Sayfa
METAR-TAF:

METAR-TAF

Havaalanları :

Banjarmasin, Endonezya

Enlem: 03-26-32S, Boylam: 114-45-45E, yükseklik: 20 m

Güncel hava durumu gözlemi

Rapor saat 18:30 UTC de 27 dakika önce yapıldı.
Rüzgar kuzey/kuzeydoğudan 2 kt
Sıcaklık 24°C
Nem 100%
Basınç 1008 hPa
Görüş mesafesi: 7000 m
2200 ft yükseklikte az bulutlu
17000 ft yükseklikte çok bulutlu

METAR: WAOO 101830Z AUTO 03002KT 7000 FEW022 OVC170 24/24 Q1008

Saat: 01:57 (18:57 UTC)

Tahmin

Rapor saat 17:00 UTC de 1 saat ve 57 dakika önce yapıldı.
Ayın 10'si saat 18 UTC'den ayın 11'si saat 18 UTC'ye kadar geçerli Tahmin
Rüzgar doğudan 6 kt
Görüş mesafesi 10 km veya daha fazla
1800 ft yükseklikte parçalı bulutlu
Geçici
ayın 10'si saat 20 UTC'den ayın 10'si saat 24 UTC'ye kadar
Görüş mesafesi: 3000 m
Pus
Geçici
ayın 11'si saat 06 UTC'den ayın 11'si saat 10 UTC'ye kadar
Görüş mesafesi: 5000 m
yağmur

TAF: WAOO 101700Z 1018/1118 09006KT 9999 SCT018 TEMPO 1020/1024 3000 BR TEMPO 1106/1110 5000 RA

4.000'den fazla havaalanı için hava durumu gözlemleri ve tahminleri (METAR ve TAF raporları).

Kullanılabilir istasyonlar harita üzerinde sarı ve kırmızı noktalarla gösterilir.

İstasyonun adını görmek için fareyi noktanın üzerinde gezdirin.

Sonrasında hava gözlem ve tahminlerini görmek için tıklayın.

Haritayı değiştirmek için: yaklaştırmak için siyah artı işaretli yeşil düğmeye ve uzaklaştırmak için de eksi işaretli düğmeye hızla tıklayın; bitişik haritalar için yeşil okları kullanın.


METAR-TAF: